TimeCDT,TemperatureF,Dew PointF,Humidity,Sea Level PressureIn,VisibilityMPH,Wind Direction,Wind SpeedMPH,Gust SpeedMPH,PrecipitationIn,Events,Conditions,WindDirDegrees,DateUTC
12:12 AM,35.6,26.6,70,30.06,10.0,East,5.8,-,N/A,,Clear,90,2013-06-14 05:12:00
12:33 AM,51.8,42.8,71,30.07,10.0,East,4.6,-,N/A,,Clear,90,2013-06-14 05:33:00
12:53 AM,51.8,41.0,67,30.06,10.0,East,3.5,-,N/A,,Clear,100,2013-06-14 05:53:00
1:12 AM,53.6,44.6,72,30.05,10.0,East,5.8,-,N/A,,Clear,90,2013-06-14 06:12:00
1:33 AM,53.6,46.4,77,30.06,10.0,ESE,3.5,-,N/A,,Clear,120,2013-06-14 06:33:00
1:53 AM,60.8,53.6,77,30.07,10.0,South,3.5,-,N/A,,Clear,170,2013-06-14 06:53:00
2:12 AM,51.8,46.4,82,30.06,10.0,ESE,3.5,-,N/A,,Clear,110,2013-06-14 07:12:00
2:33 AM,42.8,37.4,81,30.05,10.0,ESE,3.5,-,N/A,,Clear,110,2013-06-14 07:33:00
2:53 AM,46.4,42.8,87,30.06,10.0,Calm,Calm,-,N/A,,Clear,0,2013-06-14 07:53:00
3:12 AM,44.6,39.2,81,30.08,10.0,Calm,Calm,-,N/A,,Clear,0,2013-06-14 08:12:00
3:33 AM,46.4,42.8,87,30.08,10.0,SSW,4.6,-,N/A,Thunderstorm,Clear,210,2013-06-14 08:33:00
3:53 AM,35.6,32.0,87,30.05,10.0,SE,5.8,-,N/A,,Clear,140,2013-06-14 08:53:00
4:13 AM,35.6,30.2,81,30.02,10.0,ESE,8.1,-,N/A,,Clear,110,2013-06-14 09:13:00
4:33 AM,35.6,30.2,81,30.01,10.0,SE,10.4,-,N/A,,Light Drizzle,130,2013-06-14 09:33:00
4:52 AM,37.4,33.8,87,30.02,10.0,Calm,Calm,-,N/A,,Scattered Clouds,0,2013-06-14 09:52:00
5:13 AM,41.0,37.4,87,30.01,10.0,SE,4.6,-,N/A,,Clear,130,2013-06-14 10:13:00
5:33 AM,41.0,35.6,81,29.99,10.0,ESE,5.8,-,N/A,,Clear,120,2013-06-14 10:33:00
5:52 AM,44.6,39.2,81,30.00,10.0,ESE,5.8,-,N/A,,Clear,110,2013-06-14 10:52:00
6:13 AM,39.2,35.6,87,30.03,10.0,South,4.6,-,N/A,,Clear,170,2013-06-14 11:13:00
6:33 AM,46.4,42.8,87,30.02,10.0,SE,5.8,-,N/A,,Clear,130,2013-06-14 11:33:00
6:52 AM,42.8,37.4,81,30.02,10.0,SE,6.9,-,N/A,,Clear,130,2013-06-14 11:52:00
7:13 AM,50.0,44.6,82,30.02,10.0,SE,8.1,-,N/A,,Clear,140,2013-06-14 12:13:00
7:32 AM,42.8,37.4,81,30.02,10.0,SE,6.9,-,N/A,,Clear,140,2013-06-14 12:32:00
7:53 AM,48.2,41.0,76,30.03,10.0,SE,8.1,-,N/A,,Clear,140,2013-06-14 12:53:00
8:13 AM,53.6,46.4,77,30.03,10.0,SE,10.4,-,N/A,,Clear,130,2013-06-14 13:13:00
8:32 AM,46.4,37.4,71,30.04,10.0,SE,9.2,-,N/A,,Scattered Clouds,140,2013-06-14 13:32:00
8:53 AM,48.2,39.2,71,30.02,10.0,SE,12.7,17.3,N/A,,Scattered Clouds,130,2013-06-14 13:53:00
9:13 AM,55.4,44.6,67,30.01,10.0,SE,15.0,19.6,N/A,,Scattered Clouds,140,2013-06-14 14:13:00
9:32 AM,53.6,42.8,67,30.01,-9999.0,SE,16.1,-,N/A,,Unknown,140,2013-06-14 14:32:00
9:53 AM,42.8,37.4,81,30.00,10.0,SSE,17.3,23.0,N/A,,Scattered Clouds,150,2013-06-14 14:53:00
10:13 AM,-9999,-9999,N/A,29.99,10.0,SE,15.0,-,N/A,,Unknown,140,2013-06-14 15:13:00
10:32 AM,-9999,-9999,N/A,30.00,-9999.0,SE,13.8,20.7,N/A,,Unknown,140,2013-06-14 15:32:00
10:53 AM,-9999,-9999,N/A,29.99,10.0,SE,15.0,19.6,N/A,,Unknown,140,2013-06-14 15:53:00
11:12 AM,-9999,-9999,N/A,29.98,10.0,SE,13.8,-,N/A,,Unknown,130,2013-06-14 16:12:00
11:33 AM,73.4,59.0,61,29.98,10.0,SE,17.3,23.0,N/A,,Unknown,140,2013-06-14 16:33:00
11:53 AM,73.4,60.8,65,29.97,10.0,SE,17.3,25.3,N/A,,Scattered Clouds,140,2013-06-14 16:53:00
12:13 PM,73.4,60.8,65,29.95,10.0,SE,20.7,26.5,N/A,,Clear,140,2013-06-14 17:13:00
12:33 PM,75.2,62.6,65,29.96,10.0,SE,19.6,-,N/A,,Clear,130,2013-06-14 17:33:00
12:53 PM,75.2,60.8,61,29.96,10.0,SE,19.6,26.5,N/A,,Clear,140,2013-06-14 17:53:00
1:13 PM,75.2,62.6,65,29.96,10.0,SE,20.7,24.2,N/A,,Clear,140,2013-06-14 18:13:00
1:33 PM,73.4,60.8,65,29.98,10.0,SSE,15.0,23.0,N/A,,Clear,150,2013-06-14 18:33:00
1:49 PM,73.4,60.8,65,29.98,10.0,North,-9999.0,-,N/A,,Scattered Clouds,0,2013-06-14 18:49:00
2:13 PM,73.4,60.8,65,29.96,10.0,SSE,15.0,-,N/A,,Mostly Cloudy,160,2013-06-14 19:13:00
2:32 PM,73.4,60.8,65,29.94,10.0,SE,19.6,24.2,N/A,,Scattered Clouds,140,2013-06-14 19:32:00
2:53 PM,73.4,60.8,65,29.91,10.0,SSE,18.4,31.1,N/A,,Clear,150,2013-06-14 19:53:00
3:13 PM,75.2,60.8,61,29.91,10.0,SSE,23.0,28.8,N/A,,Scattered Clouds,150,2013-06-14 20:13:00
3:32 PM,77.0,60.8,57,29.91,10.0,SSE,20.7,26.5,N/A,,Scattered Clouds,150,2013-06-14 20:32:00
3:53 PM,78.8,62.6,57,29.89,10.0,South,20.7,29.9,N/A,,Clear,170,2013-06-14 20:53:00
4:13 PM,77.0,62.6,61,29.89,10.0,SSE,20.7,31.1,N/A,,Clear,160,2013-06-14 21:13:00
4:32 PM,77.0,62.6,61,29.88,10.0,SSE,18.4,28.8,N/A,,Clear,150,2013-06-14 21:32:00
4:53 PM,77.0,62.6,61,29.88,10.0,SSE,19.6,26.5,N/A,,Clear,150,2013-06-14 21:53:00
5:13 PM,77.0,62.6,61,29.87,10.0,SSE,18.4,29.9,N/A,,Clear,160,2013-06-14 22:13:00
5:32 PM,77.0,62.6,61,29.86,10.0,SSE,18.4,24.2,N/A,,Clear,160,2013-06-14 22:32:00
5:53 PM,75.2,62.6,65,29.87,10.0,SSE,20.7,26.5,N/A,,Clear,160,2013-06-14 22:53:00
6:13 PM,75.2,62.6,65,29.87,10.0,SSE,18.4,23.0,N/A,,Scattered Clouds,150,2013-06-14 23:13:00
6:33 PM,75.2,62.6,65,29.87,10.0,SSE,18.4,-,N/A,,Scattered Clouds,160,2013-06-14 23:33:00
6:53 PM,75.2,62.6,65,29.87,10.0,SSE,17.3,20.7,N/A,,Mostly Cloudy,160,2013-06-14 23:53:00
7:13 PM,75.2,62.6,65,29.87,10.0,SSE,17.3,20.7,N/A,,Scattered Clouds,160,2013-06-15 00:13:00
7:33 PM,73.4,60.8,65,29.87,10.0,SSE,16.1,-,N/A,,Clear,160,2013-06-15 00:33:00
7:53 PM,73.4,60.8,65,29.86,10.0,SSE,15.0,-,N/A,,Scattered Clouds,150,2013-06-15 00:53:00
8:13 PM,73.4,60.8,65,29.86,10.0,SSE,12.7,-,N/A,,Scattered Clouds,150,2013-06-15 01:13:00
8:33 PM,71.6,62.6,73,29.87,10.0,SE,10.4,-,N/A,,Mostly Cloudy,140,2013-06-15 01:33:00
8:53 PM,71.6,62.6,73,29.87,10.0,SSE,11.5,17.3,N/A,,Scattered Clouds,150,2013-06-15 01:53:00
9:12 PM,71.6,60.8,69,29.88,10.0,SSE,11.5,16.1,N/A,,Scattered Clouds,150,2013-06-15 02:12:00
9:33 PM,71.6,62.6,73,29.87,10.0,SE,8.1,-,N/A,,Scattered Clouds,140,2013-06-15 02:33:00
9:53 PM,69.8,62.6,78,29.87,10.0,SSE,8.1,-,N/A,,Mostly Cloudy,150,2013-06-15 02:53:00
10:13 PM,69.8,62.6,78,29.87,10.0,SSE,8.1,-,N/A,,Mostly Cloudy,160,2013-06-15 03:13:00
10:33 PM,69.8,62.6,78,29.87,10.0,SE,8.1,-,N/A,,Scattered Clouds,140,2013-06-15 03:33:00
10:53 PM,68.0,62.6,83,29.88,10.0,SE,9.2,-,N/A,,Scattered Clouds,140,2013-06-15 03:53:00
11:13 PM,69.8,62.6,78,29.89,10.0,SSE,10.4,-,N/A,,Mostly Cloudy,150,2013-06-15 04:13:00
11:33 PM,68.0,62.6,83,29.89,10.0,SSE,11.5,-,N/A,Rain-Thunderstorm,Light Thunderstorms and Rain,150,2013-06-15 04:33:00
11:52 PM,68.0,62.6,83,29.88,10.0,SSE,11.5,-,N/A,Rain,Light Rain,150,2013-06-15 04:52:00